createdAt,value
2023-03-12T00:02:02.459Z,-0.60
2023-03-12T00:04:29.866Z,-0.60
2023-03-12T00:06:56.561Z,-0.70
2023-03-12T00:09:23.433Z,-0.60
2023-03-12T00:11:50.032Z,-0.70
2023-03-12T00:14:17.028Z,-0.70
2023-03-12T00:16:43.599Z,-0.60
2023-03-12T00:19:12.711Z,-0.50
2023-03-12T00:21:39.729Z,-0.50
2023-03-12T00:24:08.075Z,-0.40
2023-03-12T00:26:34.769Z,-0.40
2023-03-12T00:29:01.338Z,-0.40
2023-03-12T00:31:32.619Z,-0.50
2023-03-12T00:34:01.476Z,-0.60
2023-03-12T00:36:31.317Z,-0.60
2023-03-12T00:38:59.270Z,-0.50
2023-03-12T00:41:27.383Z,-0.50
2023-03-12T00:43:54.121Z,-0.40
2023-03-12T00:46:21.248Z,-0.60
2023-03-12T00:48:47.952Z,-0.60
2023-03-12T00:51:15.041Z,-0.60
2023-03-12T00:53:41.785Z,-0.50
2023-03-12T00:56:09.154Z,-0.40
2023-03-12T00:58:35.857Z,-0.50
2023-03-12T01:01:05.288Z,-0.60
2023-03-12T01:03:31.915Z,-0.60
2023-03-12T01:05:58.549Z,-0.60
2023-03-12T01:08:25.350Z,-0.60
2023-03-12T01:10:52.246Z,-0.60
2023-03-12T01:13:18.925Z,-0.60
2023-03-12T01:15:45.553Z,-0.50
2023-03-12T01:18:12.303Z,-0.60
2023-03-12T01:20:40.715Z,-0.50
2023-03-12T01:23:07.895Z,-0.40
2023-03-12T01:25:36.370Z,-0.30
2023-03-12T01:28:03.153Z,-0.20
2023-03-12T01:30:29.921Z,-0.30
2023-03-12T01:32:56.610Z,-0.40
2023-03-12T01:35:23.259Z,-0.30
2023-03-12T01:37:49.874Z,-0.30
2023-03-12T01:40:18.924Z,-0.30
2023-03-12T01:42:55.991Z,-0.30
2023-03-12T01:46:04.724Z,-0.30
2023-03-12T01:48:40.332Z,-0.30
2023-03-12T01:51:10.534Z,-0.20
2023-03-12T01:53:38.396Z,-0.20
2023-03-12T01:56:06.203Z,-0.20
2023-03-12T01:58:34.272Z,-0.20
2023-03-12T02:01:01.034Z,-0.10
2023-03-12T02:03:29.431Z,-0.10
2023-03-12T02:06:04.632Z,-0.10
2023-03-12T02:08:31.267Z,-0.10
2023-03-12T02:10:57.944Z,-0.10
2023-03-12T02:13:24.751Z,0.00
2023-03-12T02:15:51.406Z,0.00
2023-03-12T02:18:19.262Z,0.00
2023-03-12T02:21:12.971Z,-0.10
2023-03-12T02:24:05.354Z,-0.10
2023-03-12T02:26:33.343Z,-0.10
2023-03-12T02:29:00.861Z,-0.10
2023-03-12T02:31:33.226Z,-0.10
2023-03-12T02:34:00.599Z,0.00
2023-03-12T02:36:27.780Z,-0.10
2023-03-12T02:38:55.852Z,-0.10
2023-03-12T02:41:26.914Z,-0.10
2023-03-12T02:43:59.019Z,-0.10
2023-03-12T02:46:26.648Z,-0.10
2023-03-12T02:48:55.187Z,-0.20
2023-03-12T02:51:21.812Z,-0.10
2023-03-12T02:53:54.645Z,-0.10
2023-03-12T02:56:26.316Z,0.00
2023-03-12T02:58:53.744Z,0.10
2023-03-12T03:01:21.119Z,0.10
2023-03-12T03:03:48.137Z,0.20
2023-03-12T03:06:15.505Z,0.20
2023-03-12T03:08:42.094Z,0.20
2023-03-12T03:11:09.449Z,0.20
2023-03-12T03:13:36.364Z,0.20
2023-03-12T03:16:03.896Z,0.20
2023-03-12T03:18:31.428Z,0.20
2023-03-12T03:21:03.603Z,0.20
2023-03-12T03:23:30.654Z,0.20
2023-03-12T03:25:57.780Z,0.30
2023-03-12T03:28:26.762Z,0.20
2023-03-12T03:30:54.826Z,0.30
2023-03-12T03:33:21.586Z,0.30
2023-03-12T03:35:48.754Z,0.40
2023-03-12T03:38:15.684Z,0.40
2023-03-12T03:40:42.441Z,0.50
2023-03-12T03:43:09.044Z,0.50
2023-03-12T03:45:35.667Z,0.50
2023-03-12T03:48:02.233Z,0.50
2023-03-12T03:50:29.325Z,0.50
2023-03-12T03:52:55.916Z,0.40
2023-03-12T03:55:22.696Z,0.30
2023-03-12T03:57:49.313Z,0.40
2023-03-12T04:00:17.924Z,0.40
2023-03-12T04:02:44.693Z,0.60
2023-03-12T04:05:11.734Z,0.70
2023-03-12T04:07:38.711Z,0.70
2023-03-12T04:10:06.187Z,0.80
2023-03-12T04:12:32.778Z,0.60
2023-03-12T04:14:59.472Z,0.50
2023-03-12T04:17:26.114Z,0.50
2023-03-12T04:19:52.893Z,0.60
2023-03-12T04:22:19.477Z,0.60
2023-03-12T04:24:46.085Z,0.60
2023-03-12T04:27:12.835Z,0.60
2023-03-12T04:29:41.993Z,0.70
2023-03-12T04:32:08.728Z,0.80
2023-03-12T04:34:35.326Z,0.80
2023-03-12T04:37:02.951Z,0.80
2023-03-12T04:39:29.696Z,0.90
2023-03-12T04:41:56.375Z,0.90
2023-03-12T04:44:23.137Z,1.00
2023-03-12T04:46:49.897Z,0.90
2023-03-12T04:49:16.582Z,1.00
2023-03-12T04:51:43.270Z,1.10
2023-03-12T04:54:09.890Z,1.00
2023-03-12T04:56:36.619Z,1.10
2023-03-12T04:59:03.336Z,1.10
2023-03-12T05:01:36.746Z,1.10
2023-03-12T05:04:04.123Z,1.10
2023-03-12T05:06:31.056Z,1.00
2023-03-12T05:08:58.002Z,1.00
2023-03-12T05:11:25.156Z,1.00
2023-03-12T05:13:52.080Z,1.00
2023-03-12T05:16:19.029Z,1.10
2023-03-12T05:18:47.184Z,1.10
2023-03-12T05:21:16.659Z,1.10
2023-03-12T05:23:43.864Z,1.20
2023-03-12T05:26:25.844Z,1.20
2023-03-12T05:28:52.717Z,1.20
2023-03-12T05:31:19.641Z,1.20
2023-03-12T05:33:46.756Z,1.20
2023-03-12T05:36:14.566Z,1.10
2023-03-12T05:38:42.700Z,1.10
2023-03-12T05:41:17.563Z,1.10
2023-03-12T05:43:44.165Z,1.20
2023-03-12T05:46:11.091Z,1.20
2023-03-12T05:48:37.733Z,1.20
2023-03-12T05:51:04.723Z,1.20
2023-03-12T05:53:31.432Z,1.20
2023-03-12T05:56:03.597Z,1.30
2023-03-12T05:58:30.860Z,1.20
2023-03-12T06:01:04.713Z,1.20
2023-03-12T06:03:31.341Z,1.20
2023-03-12T06:05:58.080Z,1.20
2023-03-12T06:08:25.055Z,1.10
2023-03-12T06:10:54.720Z,1.10
2023-03-12T06:13:22.423Z,1.10
2023-03-12T06:15:49.370Z,1.10
2023-03-12T06:18:16.266Z,1.10
2023-03-12T06:20:42.949Z,1.10
2023-03-12T06:23:09.626Z,1.00
2023-03-12T06:25:36.285Z,1.00
2023-03-12T06:28:02.948Z,1.00
2023-03-12T06:30:29.630Z,1.00
2023-03-12T06:32:56.351Z,0.90
2023-03-12T06:35:23.014Z,0.90
2023-03-12T06:37:49.638Z,0.90
2023-03-12T06:40:16.386Z,0.90
2023-03-12T06:42:43.106Z,1.00
2023-03-12T06:45:10.172Z,1.00
2023-03-12T06:47:36.761Z,1.10
2023-03-12T06:50:03.794Z,1.10
2023-03-12T06:52:30.389Z,1.10
2023-03-12T06:54:57.133Z,1.20
2023-03-12T06:57:23.716Z,1.20
2023-03-12T06:59:50.791Z,1.20
2023-03-12T07:02:17.862Z,1.20
2023-03-12T07:04:44.615Z,1.20
2023-03-12T07:07:11.925Z,1.20
2023-03-12T07:09:38.610Z,1.30
2023-03-12T07:12:05.477Z,1.20
2023-03-12T07:14:32.078Z,1.20
2023-03-12T07:17:01.737Z,1.20
2023-03-12T07:19:30.244Z,1.30
2023-03-12T07:21:57.072Z,1.40
2023-03-12T07:24:23.827Z,1.40
2023-03-12T07:26:50.420Z,1.30
2023-03-12T07:29:17.082Z,1.30
2023-03-12T07:31:43.749Z,1.20
2023-03-12T07:34:10.462Z,1.10
2023-03-12T07:36:37.275Z,1.20
2023-03-12T07:39:04.508Z,1.20
2023-03-12T07:41:31.109Z,1.20
2023-03-12T07:43:57.870Z,1.20
2023-03-12T07:46:24.601Z,1.20
2023-03-12T07:48:51.224Z,1.20
2023-03-12T07:51:17.814Z,1.30
2023-03-12T07:53:44.428Z,1.40
2023-03-12T07:56:11.128Z,1.40
2023-03-12T07:58:39.106Z,1.40
2023-03-12T08:01:06.675Z,1.50
2023-03-12T08:03:33.608Z,1.50
2023-03-12T08:06:02.725Z,1.60
2023-03-12T08:08:29.848Z,1.60
2023-03-12T08:10:57.310Z,1.70
2023-03-12T08:13:24.433Z,1.70
2023-03-12T08:15:52.995Z,1.80
2023-03-12T08:18:20.775Z,1.80
2023-03-12T08:20:51.543Z,1.80
2023-03-12T08:23:18.594Z,1.80
2023-03-12T08:25:47.202Z,1.80
2023-03-12T08:28:14.365Z,1.80
2023-03-12T08:30:46.316Z,1.80
2023-03-12T08:33:12.908Z,1.80
2023-03-12T08:35:39.617Z,1.80
2023-03-12T08:38:06.237Z,1.80
2023-03-12T08:40:33.002Z,1.80
2023-03-12T08:42:59.717Z,1.90
2023-03-12T08:45:26.455Z,1.80
2023-03-12T08:47:53.196Z,1.90
2023-03-12T08:50:22.093Z,1.90
2023-03-12T08:52:49.064Z,1.90
2023-03-12T08:55:15.900Z,2.00
2023-03-12T08:57:42.540Z,2.00
2023-03-12T09:00:15.129Z,1.90
2023-03-12T09:02:46.864Z,2.00
2023-03-12T09:05:14.518Z,2.00
2023-03-12T09:07:41.605Z,2.00
2023-03-12T09:10:08.757Z,2.00
2023-03-12T09:12:35.310Z,2.10
2023-03-12T09:15:04.333Z,2.10
2023-03-12T09:17:31.572Z,2.10
2023-03-12T09:19:58.364Z,2.20
2023-03-12T09:22:25.027Z,2.20
2023-03-12T09:24:51.652Z,2.30
2023-03-12T09:27:18.294Z,2.40
2023-03-12T09:29:58.748Z,2.40
2023-03-12T09:32:27.386Z,2.40
2023-03-12T09:34:54.406Z,2.40
2023-03-12T09:37:23.930Z,2.50
2023-03-12T09:39:51.837Z,2.50
2023-03-12T09:42:46.213Z,2.60
2023-03-12T09:45:22.500Z,2.70
2023-03-12T09:47:58.684Z,2.80
2023-03-12T09:50:43.433Z,2.80
2023-03-12T09:53:25.127Z,2.90
2023-03-12T09:55:55.424Z,2.80
2023-03-12T09:58:32.133Z,2.80
2023-03-12T10:01:08.275Z,2.80
2023-03-12T10:04:06.709Z,2.90
2023-03-12T10:07:12.261Z,2.90
2023-03-12T10:09:50.885Z,3.00
2023-03-12T10:12:47.136Z,3.00
2023-03-12T10:15:19.877Z,3.00
2023-03-12T10:18:01.063Z,3.00
2023-03-12T10:20:39.232Z,3.00
2023-03-12T10:23:08.650Z,3.10
2023-03-12T10:25:41.088Z,3.20
2023-03-12T10:28:35.701Z,3.40
2023-03-12T10:31:06.985Z,3.50
2023-03-12T10:33:47.583Z,3.60
2023-03-12T10:36:27.044Z,3.60
2023-03-12T10:38:53.689Z,3.70
2023-03-12T10:41:23.793Z,3.70
2023-03-12T10:43:50.816Z,3.80
2023-03-12T10:46:26.499Z,3.90
2023-03-12T10:49:22.130Z,4.00
2023-03-12T10:52:19.571Z,4.20
2023-03-12T10:54:48.655Z,4.30
2023-03-12T10:57:15.894Z,4.50
2023-03-12T10:59:45.318Z,4.70
2023-03-12T11:02:35.296Z,4.70
2023-03-12T11:05:03.634Z,4.80
2023-03-12T11:07:35.459Z,4.80
2023-03-12T11:10:08.173Z,4.60
2023-03-12T11:12:37.444Z,4.70
2023-03-12T11:15:27.968Z,4.70
2023-03-12T11:18:17.517Z,4.70
2023-03-12T11:20:44.140Z,4.80
2023-03-12T11:23:21.774Z,4.90
2023-03-12T11:26:02.021Z,5.10
2023-03-12T11:28:37.850Z,5.40
2023-03-12T11:31:09.825Z,5.50
2023-03-12T11:33:36.844Z,5.60
2023-03-12T11:36:09.957Z,5.60
2023-03-12T11:39:07.273Z,5.60
2023-03-12T11:41:44.464Z,5.60
2023-03-12T11:44:32.538Z,5.60
2023-03-12T11:47:27.919Z,5.70
2023-03-12T11:50:15.398Z,5.80
2023-03-12T11:53:20.131Z,5.80
2023-03-12T11:56:11.680Z,5.90
2023-03-12T11:59:02.554Z,5.90
2023-03-12T12:01:55.518Z,5.90
2023-03-12T12:04:51.650Z,6.00
2023-03-12T12:07:47.601Z,6.10
2023-03-12T12:10:35.465Z,6.30
2023-03-12T12:13:15.111Z,6.40
2023-03-12T12:16:20.716Z,6.40
2023-03-12T12:19:13.706Z,6.50
2023-03-12T12:21:59.017Z,6.90
2023-03-12T12:24:54.399Z,7.10
2023-03-12T12:27:36.705Z,7.30
2023-03-12T12:30:03.259Z,7.30
2023-03-12T12:32:58.979Z,7.30
2023-03-12T12:35:28.417Z,7.20
2023-03-12T12:38:16.439Z,7.20
2023-03-12T12:40:49.171Z,7.10
2023-03-12T12:43:40.558Z,7.10
2023-03-12T12:46:42.451Z,7.10
2023-03-12T12:49:21.042Z,7.20
2023-03-12T12:51:54.179Z,7.20
2023-03-12T12:54:49.858Z,7.20
2023-03-12T12:57:23.656Z,7.30
2023-03-12T12:59:58.564Z,7.30
2023-03-12T13:02:30.929Z,7.40
2023-03-12T13:05:01.389Z,7.40
2023-03-12T13:07:31.980Z,7.40
2023-03-12T13:09:59.645Z,7.40
2023-03-12T13:12:52.237Z,7.50
2023-03-12T13:15:30.816Z,7.60
2023-03-12T13:18:05.300Z,7.60
2023-03-12T13:20:51.850Z,7.70
2023-03-12T13:23:24.509Z,8.00
2023-03-12T13:26:08.085Z,8.30
2023-03-12T13:29:05.940Z,9.40
2023-03-12T13:31:45.816Z,10.70
2023-03-12T13:34:18.612Z,11.30
2023-03-12T13:36:52.032Z,11.20
2023-03-12T13:39:34.509Z,11.30
2023-03-12T13:42:20.664Z,11.30
2023-03-12T13:44:47.457Z,11.20
2023-03-12T13:47:28.641Z,11.20
2023-03-12T13:50:01.401Z,11.20
2023-03-12T13:52:40.282Z,11.30
2023-03-12T13:55:20.911Z,11.20
2023-03-12T13:57:52.879Z,11.10
2023-03-12T14:00:53.019Z,11.10
2023-03-12T14:03:42.491Z,11.00
2023-03-12T14:06:17.011Z,10.80
2023-03-12T14:09:23.966Z,10.80
2023-03-12T14:12:16.250Z,10.60
2023-03-12T14:15:01.956Z,10.30
2023-03-12T14:17:30.761Z,10.20
2023-03-12T14:20:07.351Z,10.00
2023-03-12T14:22:37.810Z,9.90
2023-03-12T14:25:21.991Z,9.80
2023-03-12T14:27:51.023Z,9.80
2023-03-12T14:30:53.305Z,9.80
2023-03-12T14:33:22.032Z,9.80
2023-03-12T14:36:03.503Z,9.90
2023-03-12T14:38:34.985Z,9.90
2023-03-12T14:41:30.087Z,10.00
2023-03-12T14:44:12.821Z,10.10
2023-03-12T14:46:46.999Z,10.10
2023-03-12T14:49:20.565Z,10.10
2023-03-12T14:51:48.609Z,10.10
2023-03-12T14:54:23.924Z,10.00
2023-03-12T14:56:51.095Z,10.00
2023-03-12T14:59:31.343Z,10.10
2023-03-12T15:02:19.192Z,10.10
2023-03-12T15:04:47.231Z,10.10
2023-03-12T15:07:18.445Z,10.10
2023-03-12T15:09:49.921Z,10.10
2023-03-12T15:12:23.834Z,10.10
2023-03-12T15:15:10.820Z,10.20
2023-03-12T15:17:37.849Z,10.20
2023-03-12T15:20:09.868Z,10.20
2023-03-12T15:22:37.184Z,10.40
2023-03-12T15:25:21.260Z,10.30
2023-03-12T15:27:47.881Z,10.20
2023-03-12T15:30:28.778Z,10.20
2023-03-12T15:33:05.447Z,10.20
2023-03-12T15:35:32.433Z,10.20
2023-03-12T15:37:59.385Z,10.10
2023-03-12T15:40:28.209Z,10.10
2023-03-12T15:42:59.159Z,10.10
2023-03-12T15:45:37.407Z,10.00
2023-03-12T15:48:15.976Z,9.90
2023-03-12T15:50:44.638Z,9.90
2023-03-12T15:53:14.223Z,9.90
2023-03-12T15:55:41.887Z,9.90
2023-03-12T15:58:31.526Z,9.80
2023-03-12T16:01:23.837Z,9.80
2023-03-12T16:03:50.569Z,9.80
2023-03-12T16:06:26.634Z,9.90
2023-03-12T16:09:00.523Z,10.10
2023-03-12T16:11:30.706Z,10.10
2023-03-12T16:14:30.180Z,10.00
2023-03-12T16:16:56.782Z,9.90
2023-03-12T16:19:24.495Z,9.90
2023-03-12T16:21:51.120Z,9.80
2023-03-12T16:24:17.752Z,9.80
2023-03-12T16:26:54.325Z,9.80
2023-03-12T16:29:21.834Z,9.80
2023-03-12T16:31:55.470Z,9.70
2023-03-12T16:34:22.509Z,9.70
2023-03-12T16:36:49.240Z,9.60
2023-03-12T16:39:17.761Z,9.60
2023-03-12T16:41:45.622Z,9.60
2023-03-12T16:44:19.795Z,9.40
2023-03-12T16:46:46.519Z,9.40
2023-03-12T16:49:18.001Z,9.30
2023-03-12T16:51:44.606Z,9.40
2023-03-12T16:54:12.163Z,9.50
2023-03-12T16:56:43.247Z,9.30
2023-03-12T16:59:25.409Z,9.30
2023-03-12T17:01:52.322Z,9.20
2023-03-12T17:04:19.076Z,9.10
2023-03-12T17:06:45.849Z,9.20
2023-03-12T17:09:12.433Z,9.20
2023-03-12T17:11:39.329Z,9.20
2023-03-12T17:14:16.455Z,9.10
2023-03-12T17:16:43.103Z,9.00
2023-03-12T17:19:09.660Z,9.00
2023-03-12T17:21:37.328Z,8.90
2023-03-12T17:24:04.242Z,8.80
2023-03-12T17:26:31.027Z,8.80
2023-03-12T17:28:57.772Z,8.70
2023-03-12T17:31:24.698Z,8.60
2023-03-12T17:33:51.435Z,8.60
2023-03-12T17:36:18.007Z,8.70
2023-03-12T17:38:44.622Z,8.90
2023-03-12T17:41:25.616Z,8.90
2023-03-12T17:43:54.599Z,8.90
2023-03-12T17:46:21.406Z,8.80
2023-03-12T17:48:48.044Z,8.80
2023-03-12T17:51:14.723Z,8.70
2023-03-12T17:53:41.799Z,8.70
2023-03-12T17:56:09.087Z,8.70
2023-03-12T17:58:36.700Z,8.80
2023-03-12T18:01:03.402Z,8.90
2023-03-12T18:03:30.253Z,9.00
2023-03-12T18:05:56.844Z,8.90
2023-03-12T18:08:23.453Z,8.80
2023-03-12T18:10:50.213Z,8.80
2023-03-12T18:13:16.878Z,8.90
2023-03-12T18:15:49.656Z,8.90
2023-03-12T18:18:16.318Z,9.00
2023-03-12T18:20:44.380Z,8.90
2023-03-12T18:23:10.963Z,8.80
2023-03-12T18:25:38.338Z,8.90
2023-03-12T18:28:05.394Z,8.80
2023-03-12T18:30:32.345Z,8.70
2023-03-12T18:32:59.020Z,8.90
2023-03-12T18:35:28.891Z,8.80
2023-03-12T18:37:56.558Z,8.70
2023-03-12T18:40:23.585Z,8.60
2023-03-12T18:42:50.530Z,8.60
2023-03-12T18:45:17.290Z,8.50
2023-03-12T18:47:45.233Z,8.50
2023-03-12T18:50:12.575Z,8.50
2023-03-12T18:52:39.177Z,8.60
2023-03-12T18:55:05.975Z,8.60
2023-03-12T18:57:32.673Z,8.70
2023-03-12T18:59:59.498Z,8.60
2023-03-12T19:02:26.237Z,8.70
2023-03-12T19:04:55.579Z,8.80
2023-03-12T19:07:23.208Z,8.80
2023-03-12T19:09:50.211Z,9.00
2023-03-12T19:12:16.798Z,9.10
2023-03-12T19:14:43.417Z,9.00
2023-03-12T19:17:09.993Z,9.00
2023-03-12T19:19:36.666Z,8.90
2023-03-12T19:22:04.639Z,8.90
2023-03-12T19:24:31.427Z,8.80
2023-03-12T19:26:58.083Z,8.70
2023-03-12T19:29:25.186Z,8.80
2023-03-12T19:31:51.842Z,8.80
2023-03-12T19:34:18.475Z,8.80
2023-03-12T19:36:45.085Z,8.90
2023-03-12T19:39:21.014Z,8.90
2023-03-12T19:41:49.177Z,8.80
2023-03-12T19:44:15.806Z,8.80
2023-03-12T19:46:43.217Z,8.80
2023-03-12T19:49:09.988Z,8.80
2023-03-12T19:51:36.783Z,8.80
2023-03-12T19:54:03.592Z,8.80
2023-03-12T19:56:30.191Z,8.80
2023-03-12T19:58:56.771Z,8.70
2023-03-12T20:01:24.687Z,8.60
2023-03-12T20:03:51.395Z,8.60
2023-03-12T20:06:18.044Z,8.60
2023-03-12T20:08:45.583Z,8.60
2023-03-12T20:11:12.434Z,8.60
2023-03-12T20:13:39.301Z,8.60
2023-03-12T20:16:07.672Z,8.60
2023-03-12T20:18:34.603Z,8.50
2023-03-12T20:21:01.221Z,8.40
2023-03-12T20:23:27.862Z,8.40
2023-03-12T20:25:54.463Z,8.30
2023-03-12T20:28:21.189Z,8.20
2023-03-12T20:30:48.491Z,8.10
2023-03-12T20:33:15.200Z,8.00
2023-03-12T20:35:41.925Z,7.80
2023-03-12T20:38:08.856Z,7.70
2023-03-12T20:40:35.598Z,7.60
2023-03-12T20:43:04.695Z,7.50
2023-03-12T20:45:34.434Z,7.40
2023-03-12T20:48:01.224Z,7.40
2023-03-12T20:50:28.299Z,7.20
2023-03-12T20:52:54.978Z,7.20
2023-03-12T20:55:21.670Z,7.10
2023-03-12T20:57:48.417Z,7.00
2023-03-12T21:00:15.383Z,7.00
2023-03-12T21:02:42.066Z,6.90
2023-03-12T21:05:11.282Z,6.80
2023-03-12T21:07:37.949Z,6.90
2023-03-12T21:10:06.272Z,6.90
2023-03-12T21:12:32.957Z,6.80
2023-03-12T21:15:06.187Z,6.80
2023-03-12T21:17:34.310Z,6.80
2023-03-12T21:20:02.087Z,6.80
2023-03-12T21:22:31.828Z,6.90
2023-03-12T21:24:58.786Z,6.90
2023-03-12T21:27:25.505Z,6.90
2023-03-12T21:29:53.411Z,6.80
2023-03-12T21:32:21.962Z,6.70
2023-03-12T21:34:49.429Z,6.60
2023-03-12T21:37:16.736Z,6.60
2023-03-12T21:39:43.504Z,6.60
2023-03-12T21:42:10.401Z,6.50
2023-03-12T21:44:38.007Z,6.50
2023-03-12T21:47:05.326Z,6.40
2023-03-12T21:49:35.912Z,6.40
2023-03-12T21:52:03.550Z,6.50
2023-03-12T21:54:34.455Z,6.60
2023-03-12T21:57:02.963Z,6.70
2023-03-12T21:59:30.349Z,6.80
2023-03-12T22:01:58.653Z,6.90
2023-03-12T22:04:26.669Z,6.90
2023-03-12T22:06:53.496Z,6.90
2023-03-12T22:09:20.122Z,7.00
2023-03-12T22:11:46.825Z,7.00
2023-03-12T22:14:13.571Z,7.00
2023-03-12T22:16:40.263Z,7.00
2023-03-12T22:19:07.824Z,6.90
2023-03-12T22:21:34.596Z,7.00
2023-03-12T22:24:01.876Z,6.90
2023-03-12T22:26:28.615Z,6.80
2023-03-12T22:28:57.525Z,6.80
2023-03-12T22:31:26.938Z,6.70
2023-03-12T22:33:53.930Z,6.60
2023-03-12T22:36:21.270Z,6.50
2023-03-12T22:38:48.211Z,6.50
2023-03-12T22:41:22.020Z,6.50
2023-03-12T22:43:50.926Z,6.60
2023-03-12T22:46:19.243Z,6.60
2023-03-12T22:48:47.282Z,6.60
2023-03-12T22:51:14.225Z,6.70
2023-03-12T22:53:40.837Z,6.80
2023-03-12T22:56:09.798Z,7.00
2023-03-12T22:58:36.709Z,7.10
2023-03-12T23:01:15.475Z,7.20
2023-03-12T23:03:44.317Z,7.20
2023-03-12T23:06:19.812Z,7.30
2023-03-12T23:08:47.897Z,7.30
2023-03-12T23:11:15.942Z,7.30
2023-03-12T23:13:44.354Z,7.30
2023-03-12T23:16:14.143Z,7.30
2023-03-12T23:18:41.644Z,7.30
2023-03-12T23:21:11.092Z,7.40
2023-03-12T23:23:39.505Z,7.40
2023-03-12T23:26:06.522Z,7.40
2023-03-12T23:28:33.184Z,7.40
2023-03-12T23:31:04.961Z,7.40
2023-03-12T23:33:32.937Z,7.50
2023-03-12T23:36:02.592Z,7.50
2023-03-12T23:38:30.379Z,7.60
2023-03-12T23:41:17.624Z,7.70
2023-03-12T23:43:44.700Z,7.70
2023-03-12T23:46:12.188Z,7.80
2023-03-12T23:48:40.271Z,7.70
2023-03-12T23:51:14.951Z,7.70
2023-03-12T23:53:43.713Z,7.80
2023-03-12T23:56:16.097Z,7.80
2023-03-12T23:58:43.824Z,7.90
